Time;durP1;ratioP1;P1;durP2;ratioP2;P2;SDS_P1;SDS_P2;PMS_P1;PMS_P2;Temp;Humidity;BMP_temperature;BMP_pressure;BME280_temperature;BME280_humidity;BME280_pressure;Samples;Min_cycle;Max_cycle;Signal;HPM_P1;HPM_P2
2023/08/22 00:00:33;;;;;;;0.00;0.00;;;20.90;99.90;;;;;;5108768;28;20031;-80
2023/08/22 00:02:59;;;;;;;0.17;0.17;;;20.90;99.90;;;;;;5102872;28;20481;-80
2023/08/22 00:05:25;;;;;;;0.00;0.00;;;20.80;99.90;;;;;;5111348;28;20036;-81
2023/08/22 00:07:51;;;;;;;0.10;0.10;;;20.60;99.90;;;;;;5108035;28;20030;-77
2023/08/22 00:10:18;;;;;;;0.00;0.00;;;20.70;99.90;;;;;;5093138;28;20047;-80
2023/08/22 00:12:44;;;;;;;0.93;0.43;;;21.10;99.90;;;;;;5092875;28;20036;-79
2023/08/22 00:15:12;;;;;;;0.00;0.00;;;21.40;99.90;;;;;;5094218;28;20054;-80
2023/08/22 00:17:38;;;;;;;0.00;0.00;;;21.50;99.90;;;;;;5094717;28;20488;-78
2023/08/22 00:20:07;;;;;;;0.00;0.00;;;21.70;99.90;;;;;;5092894;28;20020;-81
2023/08/22 00:22:34;;;;;;;0.65;0.65;;;21.80;99.90;;;;;;5095201;28;20070;-80
2023/08/22 00:24:59;;;;;;;0.00;0.00;;;21.60;99.90;;;;;;5088196;28;20364;-80
2023/08/22 00:27:26;;;;;;;0.00;0.00;;;21.50;99.90;;;;;;5091986;28;20032;-81
2023/08/22 00:29:52;;;;;;;0.10;0.10;;;21.80;99.90;;;;;;5091223;28;20384;-79
2023/08/22 00:32:18;;;;;;;0.00;0.00;;;21.80;99.90;;;;;;5093775;28;20035;-80
2023/08/22 00:34:43;;;;;;;0.00;0.00;;;21.80;99.90;;;;;;5092669;28;20062;-80
2023/08/22 00:37:09;;;;;;;0.00;0.00;;;21.80;99.90;;;;;;5095462;28;20020;-78
2023/08/22 00:39:35;;;;;;;0.10;0.10;;;21.70;99.90;;;;;;5100205;28;20465;-80
2023/08/22 00:42:01;;;;;;;0.00;0.00;;;21.50;99.90;;;;;;5097560;28;20062;-80
2023/08/22 00:44:26;;;;;;;0.00;0.00;;;21.50;99.90;;;;;;5096888;28;20116;-80
2023/08/22 00:46:53;;;;;;;0.00;0.00;;;21.60;99.90;;;;;;5099600;28;20205;-79
2023/08/22 00:49:20;;;;;;;1.60;0.70;;;21.40;99.90;;;;;;5099375;28;20472;-79
2023/08/22 00:51:45;;;;;;;0.00;0.00;;;20.70;99.90;;;;;;5104658;28;20016;-80
2023/08/22 00:54:13;;;;;;;0.00;0.00;;;20.70;99.90;;;;;;5100790;28;20012;-80
2023/08/22 00:56:40;;;;;;;0.00;0.00;;;20.60;99.90;;;;;;5107034;28;20027;-80
2023/08/22 00:59:07;;;;;;;0.00;0.00;;;20.80;99.90;;;;;;5097641;28;20027;-78
2023/08/22 01:01:33;;;;;;;0.00;0.00;;;21.10;99.90;;;;;;5095473;28;20389;-80
2023/08/22 01:03:59;;;;;;;0.00;0.00;;;21.10;99.90;;;;;;5099325;28;20030;-78
2023/08/22 01:06:46;;;;;;;0.70;0.38;;;21.10;99.90;;;;;;5099240;28;20039;-80
2023/08/22 01:09:28;;;;;;;0.00;0.00;;;21.20;99.90;;;;;;5097726;28;20491;-80
2023/08/22 01:12:16;;;;;;;0.00;0.00;;;21.10;99.90;;;;;;5105959;28;20031;-80
2023/08/22 01:14:48;;;;;;;0.00;0.00;;;21.00;99.90;;;;;;5098090;28;20036;-78
2023/08/22 01:17:14;;;;;;;0.00;0.00;;;20.90;99.90;;;;;;5102533;28;20165;-81
2023/08/22 01:19:40;;;;;;;0.00;0.00;;;20.80;99.90;;;;;;5095095;28;20361;-80
2023/08/22 01:22:06;;;;;;;0.00;0.00;;;20.70;99.90;;;;;;5093747;28;20043;-78
2023/08/22 01:24:32;;;;;;;0.10;0.10;;;20.60;99.90;;;;;;5097665;28;20024;-74
2023/08/22 01:26:58;;;;;;;0.00;0.00;;;20.60;99.90;;;;;;5095782;28;20067;-77
2023/08/22 01:29:39;;;;;;;1.02;1.00;;;20.50;99.90;;;;;;5093947;28;20392;-78
2023/08/22 01:32:24;;;;;;;0.08;0.08;;;20.40;99.90;;;;;;5084294;28;20095;-79
2023/08/22 01:34:53;;;;;;;0.00;0.00;;;20.00;99.90;;;;;;5094603;28;20139;-80
2023/08/22 01:37:22;;;;;;;3.00;0.55;;;19.50;99.90;;;;;;5094984;28;20031;-79
2023/08/22 01:39:48;;;;;;;0.40;0.40;;;19.40;99.90;;;;;;5094373;28;20024;-79
2023/08/22 01:42:16;;;;;;;0.55;0.55;;;19.30;99.90;;;;;;5094308;28;20028;-75
2023/08/22 01:44:42;;;;;;;0.43;0.43;;;19.40;99.90;;;;;;5094550;28;20115;-72
2023/08/22 01:47:08;;;;;;;0.00;0.00;;;19.70;99.90;;;;;;5092926;28;20095;-72
2023/08/22 01:49:37;;;;;;;0.00;0.00;;;19.90;99.90;;;;;;5094323;28;20028;-72
2023/08/22 01:52:03;;;;;;;2.92;1.45;;;20.00;99.90;;;;;;5092638;28;20059;-72
2023/08/22 01:54:29;;;;;;;0.00;0.00;;;20.00;99.90;;;;;;5092945;28;20024;-72
2023/08/22 01:56:55;;;;;;;0.00;0.00;;;20.00;99.90;;;;;;5093909;28;20349;-72
2023/08/22 01:59:21;;;;;;;0.15;0.15;;;20.20;99.90;;;;;;5093037;28;20360;-72
2023/08/22 02:01:47;;;;;;;0.00;0.00;;;20.30;99.90;;;;;;5092582;28;20487;-72
2023/08/22 02:04:13;;;;;;;0.00;0.00;;;20.40;99.90;;;;;;5092808;28;20063;-72
2023/08/22 02:06:38;;;;;;;0.05;0.05;;;20.50;99.90;;;;;;5093852;28;20028;-72
2023/08/22 02:09:05;;;;;;;0.00;0.00;;;20.50;99.90;;;;;;5092355;28;20102;-72
2023/08/22 02:11:32;;;;;;;0.05;0.05;;;20.60;99.90;;;;;;5092572;28;20127;-72
2023/08/22 02:13:59;;;;;;;0.52;0.52;;;20.50;99.90;;;;;;5092503;28;20106;-72
2023/08/22 02:16:25;;;;;;;1.23;0.73;;;20.50;99.90;;;;;;5092723;28;20127;-72
2023/08/22 02:18:50;;;;;;;0.20;0.20;;;20.50;99.90;;;;;;5093346;28;20523;-72
2023/08/22 02:21:17;;;;;;;0.10;0.10;;;20.50;99.90;;;;;;5093728;28;20384;-72
2023/08/22 02:23:43;;;;;;;0.10;0.10;;;20.40;99.90;;;;;;5092337;28;20026;-72
2023/08/22 02:26:08;;;;;;;0.00;0.00;;;20.20;99.90;;;;;;5092153;28;20093;-72
2023/08/22 02:28:34;;;;;;;0.00;0.00;;;20.00;99.90;;;;;;5093620;28;20024;-72
2023/08/22 02:31:01;;;;;;;0.82;0.82;;;19.70;99.90;;;;;;5092089;28;20031;-73
2023/08/22 02:33:28;;;;;;;0.00;0.00;;;19.80;99.90;;;;;;5097625;28;20456;-72
2023/08/22 02:35:54;;;;;;;0.15;0.15;;;20.10;99.90;;;;;;5093845;28;20066;-72
2023/08/22 02:38:19;;;;;;;0.08;0.08;;;19.90;99.90;;;;;;5092182;28;20055;-72
2023/08/22 02:40:45;;;;;;;0.35;0.35;;;19.80;99.90;;;;;;5097621;28;20056;-74
2023/08/22 02:43:11;;;;;;;0.52;0.45;;;19.60;99.90;;;;;;5103028;28;20027;-71
2023/08/22 02:45:37;;;;;;;0.10;0.10;;;19.50;99.90;;;;;;5104596;28;20024;-72
2023/08/22 02:48:04;;;;;;;0.20;0.20;;;19.30;99.90;;;;;;5096148;28;20031;-72
2023/08/22 02:50:30;;;;;;;0.22;0.22;;;19.40;99.90;;;;;;5094922;28;20459;-73
2023/08/22 02:52:56;;;;;;;0.00;0.00;;;19.80;99.90;;;;;;5097404;28;20043;-72
2023/08/22 02:55:22;;;;;;;0.10;0.10;;;20.00;99.90;;;;;;5100802;27;20024;-72
2023/08/22 02:57:48;;;;;;;0.38;0.38;;;20.10;99.90;;;;;;5100573;28;20027;-72
2023/08/22 03:00:14;;;;;;;0.00;0.00;;;20.10;99.90;;;;;;5103314;28;20464;-72
2023/08/22 03:02:40;;;;;;;0.00;0.00;;;19.80;99.90;;;;;;5107857;28;20479;-72
2023/08/22 03:05:11;;;;;;;0.00;0.00;;;20.10;99.90;;;;;;5098630;28;20036;-72
2023/08/22 03:07:37;;;;;;;1.27;0.80;;;20.20;99.90;;;;;;5077800;28;20030;-72
2023/08/22 03:10:03;;;;;;;0.00;0.00;;;20.30;99.90;;;;;;5091497;28;20039;-72
2023/08/22 03:12:29;;;;;;;0.00;0.00;;;20.00;99.90;;;;;;5090067;28;20035;-72
2023/08/22 03:14:55;;;;;;;0.00;0.00;;;19.90;99.90;;;;;;5091554;28;20539;-72
2023/08/22 03:17:21;;;;;;;0.43;0.43;;;20.00;99.90;;;;;;5091272;28;20020;-72
2023/08/22 03:19:47;;;;;;;0.00;0.00;;;19.80;99.90;;;;;;5089899;28;20103;-72
2023/08/22 03:22:13;;;;;;;0.15;0.15;;;19.90;99.90;;;;;;5091014;28;20107;-73
2023/08/22 03:24:39;;;;;;;0.22;0.22;;;20.00;99.90;;;;;;5092880;28;20028;-73
2023/08/22 03:27:05;;;;;;;0.00;0.00;;;20.00;99.90;;;;;;5091621;28;20035;-72
2023/08/22 03:29:31;;;;;;;0.00;0.00;;;20.10;99.90;;;;;;5091293;28;20023;-72
2023/08/22 03:31:58;;;;;;;0.00;0.00;;;20.20;99.90;;;;;;5091310;28;20123;-72
2023/08/22 03:34:24;;;;;;;0.00;0.00;;;20.10;99.90;;;;;;5091367;28;20119;-72
2023/08/22 03:36:50;;;;;;;0.00;0.00;;;20.20;99.90;;;;;;5091156;28;20074;-74
2023/08/22 03:39:16;;;;;;;0.10;0.10;;;19.90;99.90;;;;;;5092594;28;20024;-72
2023/08/22 03:41:41;;;;;;;0.00;0.00;;;19.70;99.90;;;;;;5091334;28;20020;-72
2023/08/22 03:44:07;;;;;;;0.32;0.32;;;19.70;99.90;;;;;;5091659;28;20066;-72
2023/08/22 03:46:34;;;;;;;0.00;0.00;;;19.70;99.90;;;;;;5074600;28;20028;-72
2023/08/22 03:49:00;;;;;;;0.30;0.30;;;19.70;99.90;;;;;;5091214;28;20024;-72
2023/08/22 03:51:26;;;;;;;0.00;0.00;;;19.50;99.90;;;;;;5074197;28;20040;-72
2023/08/22 03:53:53;;;;;;;0.00;0.00;;;19.60;99.90;;;;;;5091175;28;20158;-72
2023/08/22 03:56:19;;;;;;;0.10;0.10;;;19.40;99.90;;;;;;5092990;28;20024;-72
2023/08/22 03:58:45;;;;;;;0.00;0.00;;;19.20;99.90;;;;;;5090992;28;20019;-72
2023/08/22 04:01:10;;;;;;;0.28;0.28;;;19.10;99.90;;;;;;5091281;28;20109;-72
2023/08/22 04:03:36;;;;;;;0.40;0.40;;;18.90;99.90;;;;;;5090475;28;20070;-73
2023/08/22 04:06:05;;;;;;;0.10;0.10;;;18.80;99.90;;;;;;5091221;28;20028;-72
2023/08/22 04:08:31;;;;;;;0.00;0.00;;;18.70;99.90;;;;;;5092220;28;20077;-72
2023/08/22 04:10:57;;;;;;;0.00;0.00;;;18.60;99.90;;;;;;5092580;28;20422;-72
2023/08/22 04:13:23;;;;;;;0.10;0.10;;;18.60;99.90;;;;;;5095052;28;20028;-72
2023/08/22 04:15:49;;;;;;;0.00;0.00;;;18.60;99.90;;;;;;5094696;28;20103;-73
2023/08/22 04:18:15;;;;;;;0.00;0.00;;;18.80;99.90;;;;;;5094813;28;20024;-75
2023/08/22 04:20:43;;;;;;;0.00;0.00;;;19.10;99.90;;;;;;5094750;28;20020;-80
2023/08/22 04:23:10;;;;;;;0.00;0.00;;;19.10;99.90;;;;;;5095045;28;20024;-80
2023/08/22 04:25:36;;;;;;;0.00;0.00;;;19.10;99.90;;;;;;5094790;28;20469;-79
2023/08/22 04:28:03;;;;;;;0.10;0.10;;;19.30;99.90;;;;;;5095917;28;20024;-79
2023/08/22 04:30:29;;;;;;;0.00;0.00;;;19.30;99.90;;;;;;5096085;28;20115;-75
2023/08/22 04:32:58;;;;;;;0.00;0.00;;;19.40;99.90;;;;;;5094327;28;20115;-80
2023/08/22 04:35:26;;;;;;;0.00;0.00;;;19.10;99.90;;;;;;5077683;28;20020;-75
2023/08/22 04:37:54;;;;;;;0.10;0.10;;;19.10;99.90;;;;;;5094674;28;20074;-79
2023/08/22 04:40:20;;;;;;;0.00;0.00;;;19.20;99.90;;;;;;5094581;28;20032;-72
2023/08/22 04:43:14;;;;;;;0.00;0.00;;;19.30;99.90;;;;;;5093749;28;20027;-72
2023/08/22 04:45:40;;;;;;;0.00;0.00;;;19.40;99.90;;;;;;5094086;28;20020;-72
2023/08/22 04:48:08;;;;;;;0.00;0.00;;;19.40;99.90;;;;;;5094026;28;20046;-72
2023/08/22 04:50:34;;;;;;;0.10;0.10;;;19.30;99.90;;;;;;5093925;28;20547;-72
2023/08/22 04:53:00;;;;;;;0.10;0.10;;;19.30;99.90;;;;;;5095637;28;20399;-72
2023/08/22 04:55:26;;;;;;;0.00;0.00;;;19.40;99.90;;;;;;5094027;28;20119;-72
2023/08/22 04:57:52;;;;;;;0.38;0.38;;;19.20;99.90;;;;;;5094124;28;20024;-72
2023/08/22 05:00:18;;;;;;;0.00;0.00;;;19.20;99.90;;;;;;5093616;28;20047;-72
2023/08/22 05:02:44;;;;;;;0.00;0.00;;;19.30;99.90;;;;;;5093905;28;20052;-72
2023/08/22 05:05:10;;;;;;;0.00;0.00;;;19.40;99.90;;;;;;5092865;28;20059;-73
2023/08/22 05:07:37;;;;;;;0.00;0.00;;;19.40;99.90;;;;;;5094042;28;20498;-72
2023/08/22 05:10:04;;;;;;;0.08;0.08;;;19.50;99.90;;;;;;5093535;28;20047;-73
2023/08/22 05:12:29;;;;;;;0.17;0.17;;;19.30;99.90;;;;;;5093742;28;20062;-72
2023/08/22 05:14:57;;;;;;;0.10;0.10;;;19.30;99.90;;;;;;5093625;28;20021;-72
2023/08/22 05:17:22;;;;;;;0.00;0.00;;;19.40;99.90;;;;;;5094044;28;20377;-72
2023/08/22 05:19:49;;;;;;;0.30;0.30;;;19.40;99.90;;;;;;5100208;28;20114;-72
2023/08/22 05:22:15;;;;;;;0.00;0.00;;;19.50;99.90;;;;;;5104972;28;20168;-72
2023/08/22 05:24:41;;;;;;;0.00;0.00;;;19.60;99.90;;;;;;5102802;28;20065;-72
2023/08/22 05:27:08;;;;;;;0.10;0.10;;;19.60;99.90;;;;;;5108979;28;20020;-73
2023/08/22 05:29:34;;;;;;;0.10;0.10;;;19.50;99.90;;;;;;5106614;28;20027;-73
2023/08/22 05:32:00;;;;;;;0.10;0.10;;;19.40;99.90;;;;;;5099150;28;20482;-73
2023/08/22 05:34:26;;;;;;;1.77;1.08;;;19.10;99.90;;;;;;5099326;28;20101;-74
2023/08/22 05:36:52;;;;;;;0.00;0.00;;;18.70;99.90;;;;;;5094402;28;20016;-73
2023/08/22 05:39:19;;;;;;;1.85;1.08;;;18.90;99.90;;;;;;5106783;28;20035;-73
2023/08/22 05:41:45;;;;;;;0.00;0.00;;;19.20;99.90;;;;;;5106102;28;20024;-74
2023/08/22 05:44:12;;;;;;;0.00;0.00;;;19.40;99.90;;;;;;5103692;28;20016;-73
2023/08/22 05:46:38;;;;;;;0.00;0.00;;;19.70;99.90;;;;;;5104450;28;20110;-74
2023/08/22 05:49:05;;;;;;;0.00;0.00;;;19.90;99.90;;;;;;5102914;28;20016;-73
2023/08/22 05:51:31;;;;;;;0.25;0.25;;;20.00;99.90;;;;;;5111124;28;20437;-73
2023/08/22 05:53:57;;;;;;;0.22;0.22;;;20.10;99.90;;;;;;5101227;28;20016;-73
2023/08/22 05:56:22;;;;;;;0.35;0.35;;;20.10;99.90;;;;;;5110314;28;20027;-74
2023/08/22 05:58:48;;;;;;;0.03;0.03;;;20.10;99.90;;;;;;5093582;28;20023;-74
2023/08/22 06:01:15;;;;;;;0.00;0.00;;;20.00;99.90;;;;;;5101195;28;20028;-73
2023/08/22 06:03:41;;;;;;;0.65;0.63;;;20.00;99.90;;;;;;5105517;28;20034;-73
2023/08/22 06:06:08;;;;;;;0.43;0.43;;;19.90;99.90;;;;;;5103438;28;20088;-72
2023/08/22 06:08:35;;;;;;;0.08;0.08;;;19.70;99.90;;;;;;5108781;28;20404;-73
2023/08/22 06:11:00;;;;;;;0.00;0.00;;;20.00;99.90;;;;;;5102255;28;20072;-73
2023/08/22 06:13:26;;;;;;;0.10;0.10;;;20.20;99.90;;;;;;5091593;28;20071;-72
2023/08/22 06:15:56;;;;;;;2.97;0.98;;;19.90;99.90;;;;;;5091382;28;20516;-74
2023/08/22 06:18:22;;;;;;;0.00;0.00;;;19.90;99.90;;;;;;5078887;28;20018;-73
2023/08/22 06:20:48;;;;;;;3.50;0.75;;;20.20;99.90;;;;;;5089123;28;20464;-73
2023/08/22 06:23:14;;;;;;;0.20;0.20;;;20.10;99.90;;;;;;5092782;28;20162;-72
2023/08/22 06:25:40;;;;;;;8.45;1.00;;;19.80;99.90;;;;;;5082051;28;20032;-74
2023/08/22 06:28:05;;;;;;;0.00;0.00;;;19.90;99.90;;;;;;5104678;28;20031;-74
2023/08/22 06:30:33;;;;;;;0.05;0.05;;;19.80;99.90;;;;;;5097000;28;20085;-74
2023/08/22 06:32:58;;;;;;;0.00;0.00;;;20.00;99.90;;;;;;5099117;28;20421;-75
2023/08/22 06:35:25;;;;;;;0.00;0.00;;;20.00;99.90;;;;;;5100376;28;20039;-75
2023/08/22 06:37:51;;;;;;;0.65;0.38;;;20.20;99.90;;;;;;5109795;28;20491;-75
2023/08/22 06:40:17;;;;;;;0.10;0.10;;;20.50;99.90;;;;;;5109259;28;20054;-75
2023/08/22 06:42:43;;;;;;;0.28;0.15;;;20.80;99.90;;;;;;5105435;28;20111;-75
2023/08/22 06:45:09;;;;;;;0.65;0.55;;;20.80;99.90;;;;;;5095660;28;20044;-76
2023/08/22 06:47:35;;;;;;;0.10;0.10;;;20.50;99.90;;;;;;5090994;28;20439;-75
2023/08/22 06:50:03;;;;;;;0.20;0.20;;;20.90;99.90;;;;;;5092768;28;20024;-74
2023/08/22 06:52:28;;;;;;;0.10;0.10;;;20.70;99.90;;;;;;5105254;28;20028;-75
2023/08/22 06:54:54;;;;;;;5.65;1.50;;;20.40;99.90;;;;;;5098608;28;20024;-75
2023/08/22 06:57:20;;;;;;;0.43;0.43;;;20.40;99.90;;;;;;5088941;28;20032;-74
2023/08/22 06:59:46;;;;;;;0.00;0.00;;;20.30;99.90;;;;;;5105306;28;20047;-74
2023/08/22 07:02:12;;;;;;;1.63;1.23;;;20.20;99.90;;;;;;5100572;27;20016;-76
2023/08/22 07:04:38;;;;;;;0.28;0.28;;;20.40;99.90;;;;;;5094011;28;20032;-74
2023/08/22 07:07:03;;;;;;;1.13;1.02;;;20.50;99.90;;;;;;5097253;28;20068;-75
2023/08/22 07:09:29;;;;;;;0.43;0.43;;;20.80;99.90;;;;;;5091454;28;20028;-75
2023/08/22 07:11:55;;;;;;;0.60;0.45;;;21.10;99.90;;;;;;5093646;28;20035;-75
2023/08/22 07:14:21;;;;;;;0.88;0.57;;;20.70;99.90;;;;;;5095308;28;20028;-76
2023/08/22 07:16:46;;;;;;;5.72;0.88;;;20.70;99.90;;;;;;5105398;28;20035;-78
2023/08/22 07:19:12;;;;;;;0.47;0.47;;;20.80;99.90;;;;;;5097955;28;20565;-77
2023/08/22 07:21:38;;;;;;;2.60;1.50;;;20.80;99.90;;;;;;5104916;28;20149;-76
2023/08/22 07:24:04;;;;;;;0.00;0.00;;;20.90;99.90;;;;;;5106331;28;20597;-80
2023/08/22 07:26:30;;;;;;;8.18;2.58;;;21.00;99.90;;;;;;5104358;28;20035;-82
2023/08/22 07:28:56;;;;;;;0.98;0.90;;;21.00;99.90;;;;;;5103862;28;20023;-80
2023/08/22 07:31:22;;;;;;;0.47;0.47;;;20.90;99.90;;;;;;5093943;28;20031;-77
2023/08/22 07:33:47;;;;;;;1.45;1.02;;;20.80;99.90;;;;;;5097179;28;20036;-81
2023/08/22 07:36:20;;;;;;;0.85;0.65;;;21.00;99.90;;;;;;5096490;28;20028;-78
2023/08/22 07:38:46;;;;;;;1.75;1.30;;;21.00;99.90;;;;;;5098715;28;20427;-80
2023/08/22 07:41:12;;;;;;;1.45;0.63;;;20.80;99.90;;;;;;5108138;28;20094;-78
2023/08/22 07:43:38;;;;;;;0.52;0.52;;;20.90;99.90;;;;;;5098953;28;20111;-77
2023/08/22 07:46:03;;;;;;;0.50;0.50;;;20.70;99.90;;;;;;5100795;28;20027;-75
2023/08/22 07:48:29;;;;;;;3.10;1.95;;;21.00;99.90;;;;;;5095562;28;20476;-76
2023/08/22 07:50:55;;;;;;;0.10;0.10;;;21.00;99.90;;;;;;5104259;28;20131;-76
2023/08/22 07:53:21;;;;;;;0.22;0.22;;;21.20;99.90;;;;;;5109337;28;20025;-80
2023/08/22 07:55:47;;;;;;;0.30;0.30;;;21.20;99.90;;;;;;5103001;28;20443;-76
2023/08/22 07:58:15;;;;;;;0.93;0.40;;;21.10;99.90;;;;;;5107978;28;20028;-80
2023/08/22 08:00:45;;;;;;;0.25;0.25;;;21.10;99.90;;;;;;5093302;28;20054;-75
2023/08/22 08:03:11;;;;;;;1.33;0.38;;;21.50;99.90;;;;;;5102654;28;20023;-76
2023/08/22 08:05:37;;;;;;;0.75;0.63;;;21.60;99.90;;;;;;5104143;28;20042;-75
2023/08/22 08:08:03;;;;;;;8.13;2.92;;;21.70;99.90;;;;;;5103871;28;20028;-77
2023/08/22 08:10:29;;;;;;;13.63;2.85;;;20.90;99.90;;;;;;5094626;28;20062;-74
2023/08/22 08:12:55;;;;;;;3.30;1.02;;;20.90;99.90;;;;;;5095981;28;20063;-76
2023/08/22 08:15:21;;;;;;;1.15;0.93;;;21.00;99.90;;;;;;5103087;28;20031;-74
2023/08/22 08:17:46;;;;;;;5.68;2.20;;;21.00;99.90;;;;;;5095980;28;20039;-74
2023/08/22 08:20:14;;;;;;;0.50;0.50;;;20.90;99.90;;;;;;5096199;28;20084;-75
2023/08/22 08:22:39;;;;;;;0.88;0.82;;;21.10;99.90;;;;;;5089189;28;20158;-74
2023/08/22 08:25:05;;;;;;;5.80;2.67;;;21.10;99.90;;;;;;5077017;28;20103;-74
2023/08/22 08:27:32;;;;;;;1.98;1.00;;;21.00;99.90;;;;;;5096215;28;20077;-74
2023/08/22 08:29:58;;;;;;;1.58;1.08;;;21.20;99.90;;;;;;5103318;28;20035;-74
2023/08/22 08:32:25;;;;;;;0.05;0.05;;;21.50;99.90;;;;;;5099570;27;20048;-75
2023/08/22 08:34:50;;;;;;;2.05;1.23;;;21.40;99.90;;;;;;5099879;28;20472;-74
2023/08/22 08:37:16;;;;;;;0.00;0.00;;;21.60;99.90;;;;;;5098022;28;20205;-74
2023/08/22 08:39:42;;;;;;;0.20;0.20;;;21.90;99.90;;;;;;5091331;28;20107;-73
2023/08/22 08:42:12;;;;;;;0.15;0.10;;;21.60;99.90;;;;;;5095520;28;20108;-75
2023/08/22 08:44:39;;;;;;;0.10;0.10;;;21.90;99.90;;;;;;5103577;28;20394;-74
2023/08/22 08:47:07;;;;;;;0.55;0.55;;;21.80;99.90;;;;;;5094935;28;20016;-74
2023/08/22 08:49:34;;;;;;;1.17;0.95;;;21.80;99.90;;;;;;5094025;28;20059;-74
2023/08/22 08:52:04;;;;;;;0.73;0.73;;;21.90;99.90;;;;;;5094691;28;20027;-74
2023/08/22 08:54:31;;;;;;;0.20;0.20;;;21.90;99.90;;;;;;5094652;28;20078;-75
2023/08/22 08:56:59;;;;;;;0.00;0.00;;;21.90;99.90;;;;;;5093365;28;20064;-74
2023/08/22 08:59:25;;;;;;;0.28;0.28;;;22.30;99.90;;;;;;5080275;28;20381;-74
2023/08/22 09:01:51;;;;;;;0.05;0.05;;;22.50;99.90;;;;;;5089754;28;20019;-74
2023/08/22 09:04:17;;;;;;;0.00;0.00;;;22.20;99.90;;;;;;5095003;28;20560;-74
2023/08/22 09:06:48;;;;;;;0.20;0.10;;;22.40;99.90;;;;;;5095051;28;20046;-74
2023/08/22 09:09:14;;;;;;;0.10;0.10;;;22.50;99.90;;;;;;5095021;28;20076;-74
2023/08/22 09:11:46;;;;;;;1.05;0.65;;;22.60;99.90;;;;;;5094796;28;20036;-74
2023/08/22 09:14:12;;;;;;;0.30;0.30;;;22.50;99.90;;;;;;5095036;28;20046;-74
2023/08/22 09:16:39;;;;;;;0.17;0.17;;;22.40;99.90;;;;;;5093422;28;20532;-74
2023/08/22 09:19:07;;;;;;;0.00;0.00;;;22.80;99.90;;;;;;5095126;28;20430;-74
2023/08/22 09:21:33;;;;;;;1.27;0.57;;;23.10;99.90;;;;;;5094803;28;20024;-75
2023/08/22 09:24:09;;;;;;;0.05;0.05;;;23.30;99.90;;;;;;5095027;28;20063;-75
2023/08/22 09:26:36;;;;;;;0.20;0.20;;;23.10;99.90;;;;;;5094614;28;20111;-75
2023/08/22 09:29:06;;;;;;;0.90;0.90;;;23.10;99.90;;;;;;5094699;28;20463;-75
2023/08/22 09:31:33;;;;;;;0.00;0.00;;;22.90;99.90;;;;;;5094409;28;20057;-75
2023/08/22 09:33:59;;;;;;;0.75;0.30;;;23.10;99.90;;;;;;5094739;28;20096;-75
2023/08/22 09:36:25;;;;;;;0.10;0.10;;;23.10;99.90;;;;;;5094409;28;20052;-74
2023/08/22 09:38:55;;;;;;;0.00;0.00;;;23.00;99.90;;;;;;5094476;28;20016;-75
2023/08/22 09:41:25;;;;;;;2.17;0.40;;;22.80;99.90;;;;;;5094101;28;20036;-74
2023/08/22 09:44:00;;;;;;;0.20;0.20;;;23.00;99.90;;;;;;5094950;28;20384;-75
2023/08/22 09:46:27;;;;;;;0.00;0.00;;;23.10;99.90;;;;;;5094459;28;20032;-75
2023/08/22 09:48:56;;;;;;;0.20;0.15;;;23.40;99.90;;;;;;5094526;28;20016;-74
2023/08/22 09:51:23;;;;;;;0.00;0.00;;;23.80;99.90;;;;;;5094337;28;20055;-75
2023/08/22 09:53:59;;;;;;;1.40;0.25;;;23.30;99.90;;;;;;5093983;28;20085;-76
2023/08/22 09:56:25;;;;;;;0.10;0.10;;;23.50;99.90;;;;;;5092949;28;20388;-72
2023/08/22 09:58:52;;;;;;;0.00;0.00;;;23.50;99.90;;;;;;5093018;28;20069;-74
2023/08/22 10:01:19;;;;;;;0.93;0.90;;;23.80;99.90;;;;;;5094196;28;20063;-75
2023/08/22 10:03:53;;;;;;;0.00;0.00;;;23.70;99.90;;;;;;5093849;28;20063;-74
2023/08/22 10:06:22;;;;;;;0.00;0.00;;;24.00;99.90;;;;;;5092590;28;20040;-73
2023/08/22 10:08:48;;;;;;;0.00;0.00;;;24.10;99.90;;;;;;5093654;28;20383;-73
2023/08/22 10:11:17;;;;;;;0.10;0.10;;;24.60;99.90;;;;;;5094283;28;20094;-73
2023/08/22 10:13:44;;;;;;;0.10;0.10;;;24.40;99.90;;;;;;5093796;28;20119;-72
2023/08/22 10:16:10;;;;;;;0.20;0.20;;;24.40;99.90;;;;;;5094050;28;20020;-72
2023/08/22 10:18:36;;;;;;;0.32;0.32;;;24.60;99.90;;;;;;5093844;28;20380;-73
2023/08/22 10:21:05;;;;;;;3.22;0.28;;;24.90;99.90;;;;;;5093680;28;20027;-72
2023/08/22 10:23:52;;;;;;;16.98;1.23;;;24.50;99.90;;;;;;5093453;28;20376;-73
2023/08/22 10:26:57;;;;;;;0.20;0.17;;;24.50;99.90;;;;;;5092400;28;20063;-73
2023/08/22 10:29:23;;;;;;;0.00;0.00;;;24.80;99.90;;;;;;5092502;28;20028;-74
2023/08/22 10:32:00;;;;;;;2.63;0.88;;;24.90;99.90;;;;;;5093529;28;20032;-72
2023/08/22 10:34:27;;;;;;;1.48;0.68;;;23.60;99.90;;;;;;5093843;28;20081;-73
2023/08/22 10:36:57;;;;;;;0.10;0.10;;;23.40;99.90;;;;;;5093094;28;20487;-72
2023/08/22 10:39:45;;;;;;;0.00;0.00;;;23.90;99.90;;;;;;5093382;28;20458;-72
2023/08/22 10:42:17;;;;;;;2.08;0.98;;;24.20;99.90;;;;;;5093497;28;20154;-72
2023/08/22 10:45:00;;;;;;;0.15;0.15;;;24.20;99.90;;;;;;5093416;28;20092;-74
2023/08/22 10:47:28;;;;;;;4.05;0.98;;;24.10;99.90;;;;;;5091842;28;20028;-73
2023/08/22 10:49:59;;;;;;;0.80;0.57;;;24.60;99.90;;;;;;5093344;28;20126;-73
2023/08/22 10:52:45;;;;;;;0.03;0.03;;;24.60;99.90;;;;;;5093032;28;20047;-76
2023/08/22 10:55:13;;;;;;;0.88;0.85;;;24.60;99.40;;;;;;5093354;28;20016;-74
2023/08/22 10:57:44;;;;;;;1.88;1.00;;;24.00;99.90;;;;;;5093074;28;20115;-77
2023/08/22 11:00:23;;;;;;;0.20;0.20;;;24.10;99.90;;;;;;5091571;28;20107;-74
2023/08/22 11:02:51;;;;;;;0.52;0.25;;;24.40;99.90;;;;;;5093045;28;20047;-73
2023/08/22 11:05:17;;;;;;;1.10;0.77;;;24.60;99.70;;;;;;5092819;28;20035;-72
2023/08/22 11:07:48;;;;;;;0.25;0.22;;;24.50;99.50;;;;;;5092627;28;20024;-76
2023/08/22 11:10:16;;;;;;;0.70;0.17;;;24.80;99.30;;;;;;5093209;28;20043;-73
2023/08/22 11:12:45;;;;;;;0.17;0.17;;;24.80;98.80;;;;;;5089587;28;20019;-74
2023/08/22 11:15:15;;;;;;;0.45;0.43;;;24.90;98.80;;;;;;5097877;28;20077;-72
2023/08/22 11:17:43;;;;;;;0.32;0.32;;;24.40;99.70;;;;;;5095055;28;20028;-72
2023/08/22 11:20:13;;;;;;;0.00;0.00;;;24.60;99.90;;;;;;5092158;28;20111;-72
2023/08/22 11:22:43;;;;;;;0.43;0.43;;;25.40;99.30;;;;;;5091955;28;20032;-72
2023/08/22 11:25:11;;;;;;;0.10;0.10;;;25.50;99.60;;;;;;5099464;28;20027;-72
2023/08/22 11:27:38;;;;;;;5.03;1.77;;;25.70;99.80;;;;;;5090129;28;20089;-75
2023/08/22 11:30:04;;;;;;;0.00;0.00;;;25.20;99.20;;;;;;5094589;28;20061;-72
2023/08/22 11:32:33;;;;;;;0.00;0.00;;;24.60;99.90;;;;;;5089690;28;20461;-72
2023/08/22 11:35:01;;;;;;;0.30;0.30;;;25.30;99.90;;;;;;5095225;28;20467;-72
2023/08/22 11:37:33;;;;;;;0.93;0.68;;;25.30;99.60;;;;;;5099854;28;20050;-72
2023/08/22 11:39:59;;;;;;;;;;;25.80;99.90;;;;;;5105826;28;20024;-73
2023/08/22 11:42:27;;;;;;;0.10;0.10;;;26.30;98.60;;;;;;5099735;28;19962;-74
2023/08/22 11:45:04;;;;;;;0.32;0.22;;;25.90;98.50;;;;;;5095154;28;20422;-72
2023/08/22 11:47:42;;;;;;;0.15;0.13;;;26.00;98.90;;;;;;5092490;28;20028;-75
2023/08/22 11:50:13;;;;;;;0.00;0.00;;;25.20;99.90;;;;;;5101967;28;20025;-74
2023/08/22 11:52:44;;;;;;;1.83;0.73;;;25.40;99.90;;;;;;5099829;28;20043;-75
2023/08/22 11:55:12;;;;;;;3.47;1.17;;;25.20;99.90;;;;;;5096546;28;20078;-74
2023/08/22 11:57:39;;;;;;;0.15;0.15;;;24.90;99.90;;;;;;5092044;28;20043;-73
2023/08/22 12:00:09;;;;;;;0.10;0.10;;;24.70;99.90;;;;;;5090007;28;20020;-75
2023/08/22 12:02:52;;;;;;;0.00;0.00;;;24.80;99.90;;;;;;5104649;28;20028;-77
2023/08/22 12:05:41;;;;;;;0.15;0.15;;;25.40;99.90;;;;;;5098431;28;20054;-74
2023/08/22 12:08:06;;;;;;;0.00;0.00;;;25.70;99.90;;;;;;5093719;28;20222;-74
2023/08/22 12:10:41;;;;;;;0.00;0.00;;;25.50;99.90;;;;;;5093626;28;20032;-74
2023/08/22 12:13:09;;;;;;;0.93;0.88;;;25.20;99.90;;;;;;5104130;28;20043;-73
2023/08/22 12:15:35;;;;;;;0.10;0.08;;;25.00;99.90;;;;;;5098115;28;20008;-74
2023/08/22 12:18:04;;;;;;;0.10;0.10;;;24.90;99.90;;;;;;5095573;28;20103;-74
2023/08/22 12:20:34;;;;;;;0.20;0.20;;;25.20;99.90;;;;;;5093762;28;20063;-74
2023/08/22 12:23:01;;;;;;;0.65;0.65;;;25.30;99.90;;;;;;5097473;28;20092;-74
2023/08/22 12:25:27;;;;;;;0.00;0.00;;;24.40;99.90;;;;;;5103049;28;20510;-74
2023/08/22 12:27:53;;;;;;;0.20;0.20;;;24.60;99.90;;;;;;5096022;28;20047;-75
2023/08/22 12:30:18;;;;;;;1.00;0.28;;;24.80;99.90;;;;;;5093922;28;20027;-75
2023/08/22 12:32:45;;;;;;;0.00;0.00;;;24.80;99.90;;;;;;5093569;28;20032;-74
2023/08/22 12:35:11;;;;;;;1.00;0.57;;;24.80;99.90;;;;;;5096425;28;20028;-74
2023/08/22 12:37:38;;;;;;;0.60;0.40;;;24.90;99.90;;;;;;5094783;28;20122;-74
2023/08/22 12:40:10;;;;;;;0.00;0.00;;;25.20;99.90;;;;;;5105497;28;20273;-74
2023/08/22 12:42:41;;;;;;;0.10;0.10;;;25.40;99.90;;;;;;5105435;28;20036;-72
2023/08/22 12:45:08;;;;;;;0.10;0.10;;;26.20;99.90;;;;;;5100616;28;20535;-72
2023/08/22 12:47:36;;;;;;;0.75;0.75;;;26.40;99.80;;;;;;5085395;28;20032;-74
2023/08/22 12:50:02;;;;;;;0.20;0.20;;;26.10;99.70;;;;;;5096457;28;20029;-73